Terminal Aerodrome Forecast
Issued by NWS

Home | Current Version | Previous Version | Text Only | Print | Product List | Glossary On
Versions: 1 2 3 4 5 6 7 8 9 10 11 12 13 14 15 16 17 18 19 20 21
000
FTUS43 KDTX 200520
TAFYIP
TAF
KYIP 200520Z 2006/2106 10005KT 3SM BR OVC004
      TEMPO 2006/2008 1SM BR OVC003
     FM201200 04006KT 2SM -RA BR BKN004 OVC012
     FM201500 06006KT 3SM -DZ BR OVC006
     FM201900 12006KT 4SM BR BKN006 OVC012
     FM202300 18006KT 5SM BR BKN012 OVC022
     FM210400 20004KT 2SM BR OVC008=

USA.gov is the U.S. government's official web portal to all federal, state and local government web resources and services.